Time;durP1;ratioP1;P1;durP2;ratioP2;P2;SDS_P1;SDS_P2;PMS_P1;PMS_P2;Temp;Humidity;BMP_temperature;BMP_pressure;BME280_temperature;BME280_humidity;BME280_pressure;Samples;Min_cycle;Max_cycle;Signal;HPM_P1;HPM_P2
2024/02/04 00:01:40;;;;;;;26.23;17.48;;;;;;;6.60;100.00;99087.53;6206798;22;20061;-74
2024/02/04 00:04:05;;;;;;;27.65;17.33;;;;;;;6.83;100.00;99122.09;6230686;22;20034;-71
2024/02/04 00:06:30;;;;;;;27.23;16.98;;;;;;;6.70;100.00;99124.72;6230091;22;20061;-71
2024/02/04 00:08:56;;;;;;;26.83;16.50;;;;;;;6.78;100.00;99120.75;6207016;22;20016;-70
2024/02/04 00:11:21;;;;;;;25.98;17.75;;;;;;;6.73;100.00;99124.50;6232082;22;20689;-67
2024/02/04 00:13:47;;;;;;;24.17;16.02;;;;;;;6.58;100.00;99122.97;6207512;22;20219;-69
2024/02/04 00:16:14;;;;;;;23.45;15.68;;;;;;;6.61;100.00;99120.19;6231037;22;20004;-68
2024/02/04 00:18:43;;;;;;;23.00;14.77;;;;;;;6.32;100.00;99066.19;6258568;22;20019;-70
2024/02/04 00:21:08;;;;;;;27.40;16.88;;;;;;;6.60;100.00;99115.13;6232262;22;20505;-67
2024/02/04 00:23:33;;;;;;;25.88;17.20;;;;;;;6.61;100.00;99114.19;6231610;22;20012;-68
2024/02/04 00:25:59;;;;;;;25.42;17.20;;;;;;;6.35;100.00;99076.31;6207199;22;20098;-66
2024/02/04 00:28:25;;;;;;;27.23;17.95;;;;;;;6.54;100.00;99116.38;6231562;22;20405;-69
2024/02/04 00:30:54;;;;;;;30.83;17.55;;;;;;;6.47;100.00;99121.13;6260747;22;20734;-73
2024/02/04 00:33:24;;;;;;;24.88;15.55;;;;;;;6.41;100.00;99105.25;6257097;22;20111;-67
2024/02/04 00:35:49;;;;;;;21.95;15.40;;;;;;;6.49;100.00;99102.94;6208526;22;20110;-69
2024/02/04 00:38:15;;;;;;;25.30;16.30;;;;;;;6.51;100.00;99083.00;6204247;22;20019;-66
2024/02/04 00:40:40;;;;;;;24.42;16.42;;;;;;;6.52;100.00;99097.56;6207159;22;20029;-67
2024/02/04 00:43:05;;;;;;;26.10;16.38;;;;;;;6.53;100.00;99079.38;6228251;22;20464;-67
2024/02/04 00:45:31;;;;;;;26.17;16.33;;;;;;;6.53;100.00;99083.72;6206286;22;20012;-71
2024/02/04 00:47:56;;;;;;;25.45;16.45;;;;;;;6.53;100.00;99088.88;6231968;22;20004;-70
2024/02/04 00:50:22;;;;;;;26.40;16.70;;;;;;;6.60;100.00;99100.44;6232047;22;20008;-71
2024/02/04 00:52:47;;;;;;;23.92;17.73;;;;;;;6.51;100.00;99090.75;6257766;22;20012;-69
2024/02/04 00:55:12;;;;;;;25.33;15.90;;;;;;;6.55;100.00;99092.19;6207398;22;20085;-68
2024/02/04 00:57:39;;;;;;;28.13;17.35;;;;;;;6.51;100.00;99106.25;6230896;22;20785;-66
2024/02/04 01:00:05;;;;;;;27.40;18.42;;;;;;;6.53;100.00;99089.72;6230585;22;20057;-66
2024/02/04 01:02:33;;;;;;;26.15;16.92;;;;;;;6.53;100.00;99092.31;6207669;22;20119;-71
2024/02/04 01:04:59;;;;;;;27.20;17.50;;;;;;;6.57;100.00;99085.16;6209006;22;20031;-68
2024/02/04 01:07:24;;;;;;;26.55;16.98;;;;;;;6.29;100.00;99034.59;6261117;22;20014;-70
2024/02/04 01:09:50;;;;;;;26.63;17.20;;;;;;;6.53;100.00;99087.16;6235692;22;20688;-68
2024/02/04 01:12:15;;;;;;;25.65;17.75;;;;;;;6.45;100.00;99088.59;6206135;22;20019;-69
2024/02/04 01:14:40;;;;;;;25.55;16.70;;;;;;;6.26;100.00;99094.19;6236608;22;20495;-73
2024/02/04 01:17:07;;;;;;;24.63;17.20;;;;;;;6.45;100.00;99086.03;6230363;22;20008;-69
2024/02/04 01:19:32;;;;;;;25.67;17.30;;;;;;;6.45;100.00;99091.19;6210102;22;20663;-69
2024/02/04 01:21:58;;;;;;;26.48;17.10;;;;;;;6.14;100.00;99075.22;6232918;22;20004;-76
2024/02/04 01:24:23;;;;;;;25.25;16.33;;;;;;;6.13;100.00;99092.47;6232319;22;20030;-66
2024/02/04 01:26:49;;;;;;;25.58;17.48;;;;;;;6.27;100.00;99101.03;6233294;22;20019;-65
2024/02/04 01:29:16;;;;;;;28.25;17.00;;;;;;;6.34;100.00;99100.50;6258047;22;20580;-66
2024/02/04 01:31:42;;;;;;;24.45;16.73;;;;;;;6.20;100.00;99094.63;6232122;22;20170;-68
2024/02/04 01:34:07;;;;;;;26.98;16.83;;;;;;;5.94;100.00;99063.63;6230074;22;20087;-68
2024/02/04 01:36:33;;;;;;;26.13;17.45;;;;;;;6.00;100.00;99063.25;6234383;22;20114;-73
2024/02/04 01:38:58;;;;;;;28.33;17.75;;;;;;;5.95;100.00;99063.56;6257369;22;20020;-68
2024/02/04 01:41:26;;;;;;;28.00;18.23;;;;;;;6.31;100.00;99113.59;6206351;22;20026;-67
2024/02/04 01:43:52;;;;;;;25.58;16.77;;;;;;;5.86;100.00;99055.56;6228817;22;20039;-72
2024/02/04 01:46:17;;;;;;;27.02;17.23;;;;;;;5.88;100.00;99062.31;6256769;22;20114;-66
2024/02/04 01:48:43;;;;;;;27.60;18.30;;;;;;;5.97;100.00;99104.78;6232131;22;20123;-68
2024/02/04 01:51:08;;;;;;;28.58;18.38;;;;;;;6.12;100.00;99108.06;6229083;22;20011;-67
2024/02/04 01:53:34;;;;;;;27.80;19.48;;;;;;;5.97;100.00;99108.16;6229301;22;20010;-70
2024/02/04 01:56:00;;;;;;;26.10;18.05;;;;;;;5.98;100.00;99096.09;6231503;22;20023;-66
2024/02/04 01:58:25;;;;;;;25.58;17.75;;;;;;;5.78;100.00;99053.50;6230832;22;20451;-68
2024/02/04 02:00:51;;;;;;;27.67;18.17;;;;;;;6.02;100.00;99087.19;6228564;22;20075;-66
2024/02/04 02:03:16;;;;;;;24.98;17.33;;;;;;;6.04;100.00;99080.19;6202112;22;20416;-73
2024/02/04 02:05:45;;;;;;;28.75;18.42;;;;;;;6.07;100.00;99081.72;6227009;22;20004;-72
2024/02/04 02:08:12;;;;;;;24.48;16.70;;;;;;;5.74;100.00;99052.91;6203475;22;20035;-66
2024/02/04 02:10:42;;;;;;;27.80;19.15;;;;;;;5.88;100.00;99106.19;6232055;22;20027;-73
2024/02/04 02:13:14;;;;;;;25.85;16.63;;;;;;;6.01;100.00;99100.22;6232194;22;20143;-66
2024/02/04 02:16:04;;;;;;;27.20;18.75;;;;;;;5.54;100.00;99058.56;6206900;22;20065;-68
2024/02/04 02:19:11;;;;;;;26.90;17.50;;;;;;;5.96;100.00;99114.25;6233617;22;20106;-68
2024/02/04 02:22:06;;;;;;;24.77;16.88;;;;;;;5.73;100.00;99058.16;6243017;22;20041;-70
2024/02/04 02:24:41;;;;;;;28.55;17.98;;;;;;;5.98;100.00;99106.41;6203460;22;20016;-72
2024/02/04 02:27:07;;;;;;;26.40;17.92;;;;;;;5.90;100.00;99090.59;6205845;22;20104;-71
2024/02/04 02:29:32;;;;;;;27.02;17.95;;;;;;;6.02;100.00;99086.38;6257580;22;20734;-73
2024/02/04 02:32:03;;;;;;;27.35;17.38;;;;;;;6.00;100.00;99080.50;6231124;22;20116;-72
2024/02/04 02:34:30;;;;;;;26.05;17.08;;;;;;;6.03;100.00;99080.28;6201927;22;20014;-72
2024/02/04 02:37:58;;;;;;;27.48;17.58;;;;;;;5.90;100.00;99088.00;6206857;22;20008;-69
2024/02/04 02:40:29;;;;;;;28.63;16.63;;;;;;;5.65;100.00;99056.09;6192333;23;20028;-67
2024/02/04 02:42:57;;;;;;;29.27;17.30;;;;;;;5.86;100.00;99084.81;6169051;23;20503;-70
2024/02/04 02:45:24;;;;;;;25.38;16.30;;;;;;;5.88;100.00;99085.53;6185312;23;20048;-71
2024/02/04 02:47:51;;;;;;;27.35;17.27;;;;;;;5.89;100.00;99076.84;6174106;23;20050;-73
2024/02/04 02:50:17;;;;;;;27.85;16.80;;;;;;;5.53;100.00;99002.72;6202234;23;20338;-66
2024/02/04 02:52:42;;;;;;;23.50;15.90;;;;;;;5.84;100.00;99054.84;6173919;23;20019;-67
2024/02/04 02:55:08;;;;;;;25.73;16.50;;;;;;;5.87;100.00;99060.63;6176776;23;20015;-69
2024/02/04 02:57:33;;;;;;;24.95;16.33;;;;;;;5.83;100.00;99053.22;6199378;23;20004;-67
2024/02/04 02:59:58;;;;;;;25.73;16.63;;;;;;;5.84;100.00;99055.69;6177603;23;20112;-70
2024/02/04 03:02:24;;;;;;;23.58;16.40;;;;;;;5.45;100.00;99003.25;6199530;23;20700;-70
2024/02/04 03:04:49;;;;;;;22.45;15.88;;;;;;;5.54;100.00;99043.09;6177346;23;20058;-68
2024/02/04 03:07:17;;;;;;;24.02;16.15;;;;;;;5.68;100.00;99055.09;6203994;23;20451;-69
2024/02/04 03:09:43;;;;;;;24.85;15.88;;;;;;;5.71;100.00;99045.38;6229074;23;20036;-71
2024/02/04 03:12:09;;;;;;;23.85;17.08;;;;;;;5.62;100.00;99033.06;6176871;23;20041;-68
2024/02/04 03:14:34;;;;;;;24.58;16.55;;;;;;;5.24;100.00;98996.94;6203455;23;20087;-71
2024/02/04 03:16:59;;;;;;;23.40;15.73;;;;;;;5.65;100.00;99032.06;6176154;23;20012;-69
2024/02/04 03:19:25;;;;;;;26.08;15.98;;;;;;;5.38;100.00;98989.13;6201374;23;20968;-68
2024/02/04 03:21:50;;;;;;;26.58;16.95;;;;;;;5.59;100.00;99030.72;6175847;23;20086;-71
2024/02/04 03:24:15;;;;;;;25.13;16.23;;;;;;;5.45;100.00;99023.06;6176623;23;20095;-70
2024/02/04 03:26:43;;;;;;;23.90;15.68;;;;;;;5.18;100.00;99016.22;6200768;23;20016;-76
2024/02/04 03:29:11;;;;;;;26.15;16.17;;;;;;;5.20;100.00;99015.22;6176740;23;20023;-68
2024/02/04 03:31:36;;;;;;;21.52;14.43;;;;;;;5.35;100.00;99035.75;6177302;23;20042;-78
2024/02/04 03:34:04;;;;;;;25.63;15.63;;;;;;;4.87;100.00;98981.31;6228671;23;20071;-73
2024/02/04 03:36:30;;;;;;;25.77;15.77;;;;;;;5.14;100.00;99035.41;6173253;23;20079;-68
2024/02/04 03:38:55;;;;;;;25.70;15.40;;;;;;;5.10;100.00;99029.63;6184881;23;20086;-68
2024/02/04 03:41:21;;;;;;;24.20;15.48;;;;;;;5.13;100.00;99038.88;6227610;23;20016;-71
2024/02/04 03:43:49;;;;;;;21.15;14.27;;;;;;;5.15;100.00;99037.06;6201318;23;20008;-69
2024/02/04 03:46:15;;;;;;;22.10;15.32;;;;;;;5.13;100.00;99046.63;6201728;23;20015;-67
2024/02/04 03:48:43;;;;;;;23.00;14.90;;;;;;;5.20;100.00;99050.47;6202178;23;20008;-70
2024/02/04 03:51:15;;;;;;;22.25;14.07;;;;;;;5.09;100.00;99058.91;6203533;23;20083;-72
2024/02/04 03:53:41;;;;;;;21.73;14.57;;;;;;;5.10;100.00;99070.84;6177427;23;20012;-71
2024/02/04 03:56:08;;;;;;;20.40;13.95;;;;;;;4.84;100.00;99033.03;6203528;23;20024;-72
2024/02/04 03:58:34;;;;;;;23.45;14.38;;;;;;;5.19;100.00;99059.13;6200241;23;20008;-66
2024/02/04 04:00:59;;;;;;;21.27;13.52;;;;;;;4.81;100.00;99060.66;6228037;23;20023;-67
2024/02/04 04:03:25;;;;;;;18.70;12.45;;;;;;;4.93;100.00;99058.25;6202453;23;20445;-69
2024/02/04 04:05:51;;;;;;;19.42;12.70;;;;;;;4.61;100.00;99004.41;6174680;23;20016;-72
2024/02/04 04:08:19;;;;;;;20.17;12.23;;;;;;;4.74;100.00;99081.75;6198641;23;20046;-70
2024/02/04 04:10:47;;;;;;;19.08;12.70;;;;;;;4.76;100.00;99041.25;6201109;23;20068;-69
2024/02/04 04:13:15;;;;;;;18.55;12.38;;;;;;;4.90;100.00;99059.25;6201483;23;20016;-70
2024/02/04 04:15:42;;;;;;;19.30;12.35;;;;;;;5.01;100.00;99058.56;6228758;23;20016;-77
2024/02/04 04:18:07;;;;;;;17.10;11.32;;;;;;;5.03;100.00;99053.31;6201859;23;20004;-72
2024/02/04 04:20:35;;;;;;;20.42;12.63;;;;;;;5.06;100.00;99064.25;6202525;23;20102;-71
2024/02/04 04:23:00;;;;;;;19.15;12.18;;;;;;;4.93;100.00;99060.81;6200365;23;20008;-73
2024/02/04 04:25:26;;;;;;;18.55;12.25;;;;;;;4.77;100.00;99053.22;6227069;23;20070;-67
2024/02/04 04:27:55;;;;;;;17.48;11.80;;;;;;;4.84;100.00;99059.66;6200995;23;20038;-71
2024/02/04 04:30:25;;;;;;;18.70;11.82;;;;;;;4.88;100.00;99053.38;6175049;23;20018;-71
2024/02/04 04:32:51;;;;;;;18.25;11.55;;;;;;;4.93;100.00;99047.94;6175247;23;20017;-69
2024/02/04 04:35:16;;;;;;;17.13;11.35;;;;;;;4.92;100.00;99074.63;6199666;23;20396;-69
2024/02/04 04:37:46;;;;;;;17.77;11.90;;;;;;;4.81;100.00;99085.59;6198980;23;20012;-69
2024/02/04 04:40:14;;;;;;;16.75;11.50;;;;;;;4.92;100.00;99087.50;6206162;22;20019;-68
2024/02/04 04:42:40;;;;;;;20.95;11.63;;;;;;;4.89;100.00;99078.22;6207630;22;20375;-67
2024/02/04 04:45:07;;;;;;;16.55;11.02;;;;;;;4.94;100.00;99080.50;6210359;22;20019;-68
2024/02/04 04:47:33;;;;;;;17.77;11.27;;;;;;;4.90;100.00;99090.16;6206613;22;20534;-67
2024/02/04 04:49:58;;;;;;;16.45;10.40;;;;;;;4.80;100.00;99084.78;6234539;22;20007;-68
2024/02/04 04:52:24;;;;;;;17.48;10.55;;;;;;;4.29;100.00;99042.47;6233181;22;20426;-72
2024/02/04 04:54:49;;;;;;;19.08;10.80;;;;;;;4.39;100.00;99051.28;6235912;22;20062;-68
2024/02/04 04:57:15;;;;;;;17.42;11.13;;;;;;;4.71;100.00;99087.09;6208659;22;20012;-68
2024/02/04 04:59:43;;;;;;;16.70;11.15;;;;;;;4.81;100.00;99098.47;6228922;23;20518;-69
2024/02/04 05:02:10;;;;;;;16.75;10.35;;;;;;;4.50;100.00;99096.97;6208694;22;20008;-69
2024/02/04 05:04:44;;;;;;;15.48;10.13;;;;;;;4.29;100.00;99048.47;6233780;22;20664;-67
2024/02/04 05:07:09;;;;;;;17.13;10.85;;;;;;;4.57;100.00;99095.69;6207791;22;20053;-69
2024/02/04 05:09:35;;;;;;;15.82;10.73;;;;;;;4.50;100.00;99112.44;6200032;23;20016;-71
2024/02/04 05:12:03;;;;;;;17.52;10.98;;;;;;;4.18;100.00;99110.91;6208675;22;20031;-75
2024/02/04 05:14:31;;;;;;;17.42;10.35;;;;;;;4.22;100.00;99093.53;6206771;22;20016;-69
2024/02/04 05:16:56;;;;;;;15.63;10.80;;;;;;;4.15;100.00;99105.09;6235230;22;20042;-68
2024/02/04 05:19:26;;;;;;;16.98;11.20;;;;;;;4.31;100.00;99112.72;6232369;22;20024;-69
2024/02/04 05:21:52;;;;;;;21.05;11.75;;;;;;;4.48;100.00;99107.38;6232173;22;20487;-73
2024/02/04 05:24:17;;;;;;;17.02;11.05;;;;;;;4.55;100.00;99102.69;6205927;22;20042;-70
2024/02/04 05:26:42;;;;;;;18.45;11.27;;;;;;;4.56;100.00;99105.16;6229084;22;20692;-67
2024/02/04 05:29:08;;;;;;;17.17;11.30;;;;;;;4.65;100.00;99101.19;6208285;22;20038;-66
2024/02/04 05:31:33;;;;;;;17.33;10.85;;;;;;;4.39;100.00;99052.09;6233698;22;20061;-68
2024/02/04 05:33:58;;;;;;;17.00;10.38;;;;;;;4.63;100.00;99111.56;6209199;22;20098;-69
2024/02/04 05:36:24;;;;;;;16.15;10.63;;;;;;;4.52;100.00;99108.84;6207621;22;20130;-67
2024/02/04 05:38:52;;;;;;;14.85;10.25;;;;;;;4.25;100.00;99067.56;6205245;22;20038;-66
2024/02/04 05:41:17;;;;;;;15.35;10.48;;;;;;;4.24;100.00;99061.59;6203914;22;20008;-68
2024/02/04 05:43:42;;;;;;;18.08;10.70;;;;;;;4.30;100.00;99065.56;6234520;22;20062;-71
2024/02/04 05:46:08;;;;;;;17.38;11.07;;;;;;;4.50;100.00;99120.97;6206313;22;20027;-71
2024/02/04 05:48:33;;;;;;;19.00;11.23;;;;;;;4.42;100.00;99111.16;6229531;23;20023;-70
2024/02/04 05:51:00;;;;;;;17.17;10.68;;;;;;;3.98;100.00;99055.47;6258355;22;20378;-66
2024/02/04 05:53:25;;;;;;;17.80;11.82;;;;;;;4.14;100.00;99127.41;6207598;22;20424;-71
2024/02/04 05:55:51;;;;;;;17.38;10.55;;;;;;;4.14;100.00;99101.69;6231295;22;20065;-69
2024/02/04 05:58:16;;;;;;;17.83;11.23;;;;;;;4.29;100.00;99141.16;6208494;22;20016;-69
2024/02/04 06:00:41;;;;;;;15.55;10.38;;;;;;;4.28;100.00;99106.00;6223849;22;20014;-69
2024/02/04 06:03:07;;;;;;;16.67;11.07;;;;;;;4.43;100.00;99120.56;6204691;22;20008;-69
2024/02/04 06:05:32;;;;;;;17.60;10.77;;;;;;;4.43;100.00;99135.16;6234118;22;20323;-71
2024/02/04 06:07:57;;;;;;;17.38;10.32;;;;;;;4.40;100.00;99135.34;6229535;22;20011;-72
2024/02/04 06:10:23;;;;;;;15.85;10.02;;;;;;;4.51;100.00;99124.38;6228337;22;20043;-68
2024/02/04 06:12:50;;;;;;;14.43;9.80;;;;;;;4.61;100.00;99134.03;6231831;22;20003;-69
2024/02/04 06:15:20;;;;;;;15.13;10.57;;;;;;;4.72;100.00;99092.16;6233414;22;20015;-68
2024/02/04 06:17:46;;;;;;;15.25;10.15;;;;;;;5.20;100.00;99136.38;6207352;22;20019;-65
2024/02/04 06:20:11;;;;;;;14.65;9.68;;;;;;;4.97;100.00;99067.44;6233510;22;20322;-71
2024/02/04 06:22:37;;;;;;;15.05;9.35;;;;;;;5.43;100.00;99123.75;6231434;22;20014;-68
2024/02/04 06:25:03;;;;;;;17.75;10.07;;;;;;;5.45;100.00;99111.56;6259138;22;20015;-70
2024/02/04 06:27:33;;;;;;;14.82;9.75;;;;;;;5.17;100.00;99056.66;6232935;22;20487;-70
2024/02/04 06:30:01;;;;;;;14.30;9.57;;;;;;;5.50;100.00;99106.94;6208012;22;20015;-69
2024/02/04 06:32:29;;;;;;;13.80;9.85;;;;;;;5.54;100.00;99123.06;6235690;22;20007;-67
2024/02/04 06:34:55;;;;;;;14.85;8.93;;;;;;;5.61;100.00;99131.22;6206892;22;20427;-72
2024/02/04 06:37:20;;;;;;;16.02;9.55;;;;;;;5.43;100.00;99087.66;6208219;22;20123;-70
2024/02/04 06:39:46;;;;;;;15.27;9.50;;;;;;;5.81;100.00;99127.34;6205691;22;20528;-70
2024/02/04 06:42:13;;;;;;;14.98;9.60;;;;;;;5.74;100.00;99129.50;6206069;22;20012;-67
2024/02/04 06:44:44;;;;;;;13.70;9.07;;;;;;;5.69;100.00;99116.06;6207686;22;20573;-67
2024/02/04 06:47:13;;;;;;;13.77;9.18;;;;;;;5.86;100.00;99144.16;6203707;22;20019;-68
2024/02/04 06:49:40;;;;;;;13.30;8.90;;;;;;;5.62;100.00;99122.56;6208433;22;20016;-70
2024/02/04 06:52:05;;;;;;;13.27;9.02;;;;;;;5.39;100.00;99092.19;6232972;22;21052;-70
2024/02/04 06:54:31;;;;;;;16.10;9.27;;;;;;;5.64;100.00;99143.91;6232588;22;20015;-72
2024/02/04 06:56:56;;;;;;;15.75;9.63;;;;;;;5.41;100.00;99101.59;6206815;22;20007;-68
2024/02/04 06:59:23;;;;;;;13.80;8.02;;;;;;;5.68;100.00;99150.53;6206149;22;20035;-69
2024/02/04 07:01:53;;;;;;;13.77;8.73;;;;;;;5.59;100.00;99151.97;6232178;22;20015;-70
2024/02/04 07:04:18;;;;;;;15.27;9.68;;;;;;;5.22;100.00;99113.09;6254413;22;20504;-68
2024/02/04 07:06:44;;;;;;;13.52;9.02;;;;;;;5.54;100.00;99160.00;6232917;22;20099;-73
2024/02/04 07:09:09;;;;;;;13.13;8.85;;;;;;;5.59;100.00;99151.97;6231170;22;20403;-69
2024/02/04 07:11:35;;;;;;;12.15;8.30;;;;;;;5.39;100.00;99145.50;6235078;22;20039;-68
2024/02/04 07:14:02;;;;;;;14.98;8.68;;;;;;;5.42;100.00;99154.78;6232114;22;20113;-72
2024/02/04 07:16:28;;;;;;;13.40;9.02;;;;;;;5.50;100.00;99152.56;6261190;22;20007;-71
2024/02/04 07:18:55;;;;;;;15.80;9.30;;;;;;;5.48;100.00;99151.84;6259019;22;20058;-71
2024/02/04 07:21:26;;;;;;;14.68;8.88;;;;;;;5.43;100.00;99154.69;6208606;22;20012;-67
2024/02/04 07:23:51;;;;;;;14.13;9.27;;;;;;;5.32;100.00;99159.72;6209228;22;20011;-70
2024/02/04 07:26:17;;;;;;;14.00;7.90;;;;;;;5.42;100.00;99155.66;6206045;22;20364;-67
2024/02/04 07:28:44;;;;;;;12.15;7.90;;;;;;;5.55;100.00;99156.50;6233042;22;20000;-70
2024/02/04 07:31:10;;;;;;;13.38;8.02;;;;;;;5.62;100.00;99162.06;6206440;22;20019;-69
2024/02/04 07:33:36;;;;;;;11.65;8.00;;;;;;;5.72;100.00;99168.28;6227892;22;20068;-70
2024/02/04 07:36:02;;;;;;;12.63;7.97;;;;;;;5.59;100.00;99164.88;6231192;22;20047;-72
2024/02/04 07:38:27;;;;;;;12.73;8.25;;;;;;;5.55;100.00;99171.16;6206955;22;20020;-69
2024/02/04 07:40:56;;;;;;;12.40;8.43;;;;;;;5.38;100.00;99167.06;6232198;22;20624;-69
2024/02/04 07:43:21;;;;;;;15.47;8.97;;;;;;;5.45;100.00;99182.97;6206529;22;20026;-68
2024/02/04 07:45:47;;;;;;;13.55;8.57;;;;;;;5.34;100.00;99181.09;6233953;22;20012;-68
2024/02/04 07:48:14;;;;;;;13.45;8.65;;;;;;;5.05;100.00;99124.44;6231340;22;20011;-71
2024/02/04 07:50:42;;;;;;;16.65;9.85;;;;;;;5.04;100.00;99122.81;6209621;22;20014;-69
2024/02/04 07:53:08;;;;;;;16.67;10.13;;;;;;;5.27;100.00;99166.94;6261314;22;20014;-69
2024/02/04 07:55:38;;;;;;;14.93;9.65;;;;;;;5.17;100.00;99167.50;6230175;22;20047;-66
2024/02/04 07:58:04;;;;;;;14.98;8.98;;;;;;;5.08;100.00;99178.41;6209215;22;20007;-65
2024/02/04 08:00:29;;;;;;;12.18;8.20;;;;;;;5.03;100.00;99175.28;6231860;22;20022;-71
2024/02/04 08:02:55;;;;;;;13.18;9.75;;;;;;;4.68;100.00;99131.91;6210106;22;20039;-72
2024/02/04 08:05:21;;;;;;;13.00;9.40;;;;;;;5.16;100.00;99185.66;6256996;22;20061;-71
2024/02/04 08:07:46;;;;;;;13.98;9.13;;;;;;;5.23;100.00;99193.84;6234888;22;20012;-66
2024/02/04 08:10:15;;;;;;;14.30;9.07;;;;;;;5.14;100.00;99172.84;6205567;22;20709;-75
2024/02/04 08:12:43;;;;;;;13.70;9.70;;;;;;;5.17;100.00;99195.88;6207353;22;20015;-69
2024/02/04 08:15:09;;;;;;;13.52;9.32;;;;;;;5.18;100.00;99191.53;6234560;22;20226;-73
2024/02/04 08:17:37;;;;;;;14.15;9.38;;;;;;;5.09;100.00;99200.69;6233637;22;20319;-67
2024/02/04 08:20:04;;;;;;;14.63;9.73;;;;;;;5.11;100.00;99208.31;6210332;22;20055;-71
2024/02/04 08:22:30;;;;;;;13.98;9.35;;;;;;;5.09;100.00;99200.69;6232859;22;20038;-68
2024/02/04 08:24:57;;;;;;;13.13;9.10;;;;;;;5.10;100.00;99209.25;6261470;22;20436;-69
2024/02/04 08:27:23;;;;;;;14.05;9.38;;;;;;;4.90;100.00;99179.53;6232326;22;20393;-70
2024/02/04 08:29:48;;;;;;;18.23;9.63;;;;;;;4.90;100.00;99171.81;6262415;22;20023;-72
2024/02/04 08:32:14;;;;;;;12.35;8.40;;;;;;;4.93;100.00;99185.34;6209351;22;20011;-68
2024/02/04 08:34:44;;;;;;;16.45;9.38;;;;;;;5.21;100.00;99224.88;6234573;22;20138;-70
2024/02/04 08:37:11;;;;;;;13.02;8.90;;;;;;;5.26;100.00;99238.31;6235488;22;20039;-67
2024/02/04 08:39:40;;;;;;;13.27;8.68;;;;;;;5.26;100.00;99234.91;6233564;22;20114;-65
2024/02/04 08:42:06;;;;;;;12.95;9.00;;;;;;;5.23;100.00;99222.19;6200269;22;20010;-70
2024/02/04 08:44:31;;;;;;;11.85;8.57;;;;;;;4.98;100.00;99185.03;6204060;22;20011;-70
2024/02/04 08:46:59;;;;;;;11.38;8.48;;;;;;;5.03;100.00;99180.44;6232595;22;20526;-70
2024/02/04 08:49:27;;;;;;;14.75;9.18;;;;;;;5.28;100.00;99220.16;6205632;22;20694;-69
2024/02/04 08:51:52;;;;;;;12.65;9.00;;;;;;;5.33;100.00;99224.09;6258540;22;20084;-69
2024/02/04 08:54:21;;;;;;;15.88;9.13;;;;;;;5.32;100.00;99232.75;6259160;22;20015;-70
2024/02/04 08:56:46;;;;;;;13.02;9.07;;;;;;;5.26;100.00;99214.28;6204189;22;20004;-68
2024/02/04 08:59:14;;;;;;;13.65;9.25;;;;;;;5.18;100.00;99184.66;6231014;22;20008;-70
2024/02/04 09:01:39;;;;;;;14.23;9.05;;;;;;;5.46;100.00;99221.56;6205168;22;20162;-69
2024/02/04 09:04:04;;;;;;;14.27;8.85;;;;;;;5.36;100.00;99235.97;6201797;22;20624;-69
2024/02/04 09:06:30;;;;;;;12.90;8.82;;;;;;;5.34;100.00;99230.91;6231544;22;20066;-69
2024/02/04 09:09:00;;;;;;;14.88;9.35;;;;;;;5.34;100.00;99217.19;6229714;22;20090;-69
2024/02/04 09:11:26;;;;;;;12.48;8.63;;;;;;;5.35;100.00;99234.31;6207982;22;20008;-69
2024/02/04 09:13:51;;;;;;;13.95;9.05;;;;;;;5.44;100.00;99236.31;6203074;22;20030;-72
2024/02/04 09:16:17;;;;;;;14.82;9.38;;;;;;;5.31;100.00;99228.53;6230231;22;20004;-66
2024/02/04 09:18:42;;;;;;;13.38;9.02;;;;;;;5.24;100.00;99211.78;6258610;22;20451;-68
2024/02/04 09:21:10;;;;;;;14.25;9.70;;;;;;;5.21;100.00;99168.13;6205040;22;20043;-70
2024/02/04 09:23:36;;;;;;;14.43;9.95;;;;;;;5.45;100.00;99213.94;6230524;22;20031;-71
2024/02/04 09:26:01;;;;;;;14.65;9.95;;;;;;;5.61;100.00;99217.19;6230780;22;20043;-67
2024/02/04 09:28:26;;;;;;;18.00;11.00;;;;;;;5.26;100.00;99160.94;6258444;22;20011;-69
2024/02/04 09:30:52;;;;;;;16.00;10.57;;;;;;;5.61;100.00;99224.94;6202313;22;20054;-72
2024/02/04 09:33:17;;;;;;;17.25;11.48;;;;;;;5.65;100.00;99221.22;6231588;22;20011;-72
2024/02/04 09:35:48;;;;;;;16.13;10.43;;;;;;;5.40;100.00;99175.53;6255082;22;20035;-73
2024/02/04 09:38:15;;;;;;;13.52;9.70;;;;;;;5.77;100.00;99219.63;6230196;22;20023;-71
2024/02/04 09:40:40;;;;;;;13.65;9.75;;;;;;;5.48;100.00;99183.63;6204932;22;20008;-69
2024/02/04 09:43:06;;;;;;;13.73;9.50;;;;;;;5.88;100.00;99224.91;6201410;22;20008;-71
2024/02/04 09:45:34;;;;;;;15.63;10.43;;;;;;;5.54;100.00;99188.38;6207232;22;20019;-70
2024/02/04 09:48:03;;;;;;;14.45;9.57;;;;;;;5.89;100.00;99221.38;6202478;22;20824;-69
2024/02/04 09:50:31;;;;;;;14.38;9.77;;;;;;;5.65;100.00;99184.28;6233076;22;20035;-71
2024/02/04 09:53:01;;;;;;;15.30;9.73;;;;;;;5.73;100.00;99193.19;6230514;22;20061;-67
2024/02/04 09:55:28;;;;;;;15.05;9.80;;;;;;;5.96;100.00;99220.09;6205062;22;20008;-69
2024/02/04 09:57:54;;;;;;;14.82;9.93;;;;;;;6.00;100.00;99217.31;6205217;22;20567;-72
2024/02/04 10:00:23;;;;;;;15.10;10.55;;;;;;;6.08;100.00;99212.47;6230884;22;20110;-70
2024/02/04 10:02:48;;;;;;;15.03;10.00;;;;;;;6.18;100.00;99218.69;6232545;22;20003;-69
2024/02/04 10:05:16;;;;;;;14.55;9.77;;;;;;;6.21;100.00;99222.81;6257737;22;20072;-69
2024/02/04 10:07:42;;;;;;;15.88;9.50;;;;;;;6.23;100.00;99211.44;6228968;22;20004;-69
2024/02/04 10:10:08;;;;;;;11.88;8.35;;;;;;;6.49;100.00;99216.63;6226830;22;20011;-71
2024/02/04 10:12:37;;;;;;;11.35;6.72;;;;;;;6.70;100.00;99222.09;6206559;22;20156;-72
2024/02/04 10:15:03;;;;;;;;;;;;;;;6.83;100.00;99220.31;6205124;22;20015;-67
2024/02/04 10:17:30;;;;;;;10.35;6.20;;;;;;;6.71;99.25;99165.13;6229925;22;20373;-68
2024/02/04 10:19:56;;;;;;;10.73;5.97;;;;;;;7.28;96.38;99214.59;6232022;22;20109;-72
2024/02/04 10:22:22;;;;;;;9.15;5.93;;;;;;;7.33;93.81;99191.81;6204062;22;20632;-72
2024/02/04 10:24:49;;;;;;;8.73;5.68;;;;;;;7.36;93.25;99172.69;6205159;22;20008;-68
2024/02/04 10:27:15;;;;;;;10.52;6.68;;;;;;;8.00;94.66;99208.56;6232528;22;20362;-66
2024/02/04 10:29:41;;;;;;;11.88;7.03;;;;;;;7.72;93.41;99170.94;6203645;22;20568;-67
2024/02/04 10:32:08;;;;;;;12.88;6.88;;;;;;;7.67;94.10;99156.56;6258228;22;20003;-67
2024/02/04 10:34:38;;;;;;;9.98;6.95;;;;;;;7.96;95.10;99204.53;6227019;22;20077;-66
2024/02/04 10:37:04;;;;;;;11.75;5.75;;;;;;;7.95;94.36;99201.13;6205690;22;20016;-68
2024/02/04 10:39:32;;;;;;;10.00;6.35;;;;;;;8.00;94.37;99208.56;6203169;22;20024;-68
2024/02/04 10:42:04;;;;;;;10.88;5.50;;;;;;;8.03;92.53;99192.78;6230646;22;20313;-69
2024/02/04 10:44:37;;;;;;;11.55;7.78;;;;;;;8.68;87.90;99200.91;6227535;22;20779;-70
2024/02/04 10:47:06;;;;;;;8.85;6.03;;;;;;;8.46;85.88;99153.31;6197926;22;20011;-70
2024/02/04 10:49:34;;;;;;;13.52;7.18;;;;;;;8.63;85.71;99163.22;6197500;22;20008;-70
2024/02/04 10:52:00;;;;;;;10.27;6.78;;;;;;;9.02;80.63;99183.56;6199777;22;20069;-70
2024/02/04 10:54:27;;;;;;;8.15;5.45;;;;;;;9.10;81.85;99194.16;6226019;22;20005;-70
2024/02/04 10:57:02;;;;;;;9.82;4.80;;;;;;;9.32;82.27;99188.06;6199465;22;20007;-68
2024/02/04 10:59:29;;;;;;;7.60;4.15;;;;;;;9.55;78.25;99175.84;6225683;22;20020;-70
2024/02/04 11:01:55;;;;;;;9.32;4.13;;;;;;;9.59;78.38;99177.25;6199901;22;20007;-69
2024/02/04 11:04:23;;;;;;;8.95;3.97;;;;;;;9.60;77.67;99159.88;6196668;22;20030;-70
2024/02/04 11:06:50;;;;;;;7.90;3.53;;;;;;;9.71;76.53;99156.41;6196401;22;20003;-68
2024/02/04 11:09:16;;;;;;;7.25;3.70;;;;;;;9.85;78.47;99152.69;6194184;22;20234;-69
2024/02/04 11:11:47;;;;;;;7.68;3.95;;;;;;;9.93;76.39;99158.06;6198652;22;20472;-70
2024/02/04 11:14:15;;;;;;;8.32;3.60;;;;;;;9.99;74.96;99147.19;6197664;22;20825;-69
2024/02/04 11:17:08;;;;;;;8.40;3.47;;;;;;;10.08;73.22;99136.03;6196101;22;20057;-69
2024/02/04 11:19:52;;;;;;;7.63;4.47;;;;;;;10.17;72.78;99098.06;6247872;22;20022;-70
2024/02/04 11:22:40;;;;;;;7.28;4.00;;;;;;;10.80;67.92;99133.44;6222942;22;20098;-69